sensor_id;sensor_type;location;lat;lon;timestamp;temperature;humidity
25973;DHT22;13765;51.166;4.466;2023-05-14T00:00:27;14.70;99.90
25973;DHT22;13765;51.166;4.466;2023-05-14T00:02:53;14.70;99.90
25973;DHT22;13765;51.166;4.466;2023-05-14T00:05:19;14.70;99.90
25973;DHT22;13765;51.166;4.466;2023-05-14T00:07:49;14.70;99.90
25973;DHT22;13765;51.166;4.466;2023-05-14T00:10:15;14.60;99.90
25973;DHT22;13765;51.166;4.466;2023-05-14T00:12:43;14.60;99.90
25973;DHT22;13765;51.166;4.466;2023-05-14T00:15:11;14.60;99.90
25973;DHT22;13765;51.166;4.466;2023-05-14T00:17:37;14.60;99.90
25973;DHT22;13765;51.166;4.466;2023-05-14T00:20:03;14.60;99.90
25973;DHT22;13765;51.166;4.466;2023-05-14T00:22:34;14.50;99.90
25973;DHT22;13765;51.166;4.466;2023-05-14T00:25:01;14.50;99.90
25973;DHT22;13765;51.166;4.466;2023-05-14T00:27:31;14.50;99.90
25973;DHT22;13765;51.166;4.466;2023-05-14T00:29:57;14.40;99.90
25973;DHT22;13765;51.166;4.466;2023-05-14T00:32:25;14.40;99.90
25973;DHT22;13765;51.166;4.466;2023-05-14T00:34:51;14.40;99.90
25973;DHT22;13765;51.166;4.466;2023-05-14T00:37:16;14.30;99.90
25973;DHT22;13765;51.166;4.466;2023-05-14T00:39:44;14.30;99.90
25973;DHT22;13765;51.166;4.466;2023-05-14T00:42:12;14.40;99.90
25973;DHT22;13765;51.166;4.466;2023-05-14T00:44:40;14.40;99.90
25973;DHT22;13765;51.166;4.466;2023-05-14T00:47:06;14.30;99.90
25973;DHT22;13765;51.166;4.466;2023-05-14T00:49:35;14.30;99.90
25973;DHT22;13765;51.166;4.466;2023-05-14T00:52:01;14.40;99.90
25973;DHT22;13765;51.166;4.466;2023-05-14T00:54:29;14.40;99.90
25973;DHT22;13765;51.166;4.466;2023-05-14T00:56:55;14.30;99.90
25973;DHT22;13765;51.166;4.466;2023-05-14T00:59:24;14.30;99.90
25973;DHT22;13765;51.166;4.466;2023-05-14T01:01:52;14.20;99.90
25973;DHT22;13765;51.166;4.466;2023-05-14T01:04:18;14.10;99.90
25973;DHT22;13765;51.166;4.466;2023-05-14T01:09:54;14.00;99.90
25973;DHT22;13765;51.166;4.466;2023-05-14T01:13:25;14.00;99.90
25973;DHT22;13765;51.166;4.466;2023-05-14T01:15:33;14.00;99.90
25973;DHT22;13765;51.166;4.466;2023-05-14T01:18:07;14.00;99.90
25973;DHT22;13765;51.166;4.466;2023-05-14T01:20:38;14.00;99.90
25973;DHT22;13765;51.166;4.466;2023-05-14T01:23:04;13.90;99.90
25973;DHT22;13765;51.166;4.466;2023-05-14T01:25:30;13.90;99.90
25973;DHT22;13765;51.166;4.466;2023-05-14T01:28:44;13.90;99.90
25973;DHT22;13765;51.166;4.466;2023-05-14T01:31:09;13.90;99.90
25973;DHT22;13765;51.166;4.466;2023-05-14T01:33:41;13.80;99.90
25973;DHT22;13765;51.166;4.466;2023-05-14T01:36:07;13.90;99.90
25973;DHT22;13765;51.166;4.466;2023-05-14T01:38:34;13.70;99.90
25973;DHT22;13765;51.166;4.466;2023-05-14T01:41:01;13.70;99.90
25973;DHT22;13765;51.166;4.466;2023-05-14T01:43:27;13.70;99.90
25973;DHT22;13765;51.166;4.466;2023-05-14T01:45:54;13.70;99.90
25973;DHT22;13765;51.166;4.466;2023-05-14T01:48:22;13.70;99.90
25973;DHT22;13765;51.166;4.466;2023-05-14T01:50:48;13.70;99.90
25973;DHT22;13765;51.166;4.466;2023-05-14T01:53:21;13.70;99.90
25973;DHT22;13765;51.166;4.466;2023-05-14T01:55:46;13.70;99.90
25973;DHT22;13765;51.166;4.466;2023-05-14T01:58:15;13.60;99.90
25973;DHT22;13765;51.166;4.466;2023-05-14T02:00:43;13.60;99.90
25973;DHT22;13765;51.166;4.466;2023-05-14T02:03:09;13.70;99.90
25973;DHT22;13765;51.166;4.466;2023-05-14T02:05:34;13.70;99.90
25973;DHT22;13765;51.166;4.466;2023-05-14T02:08:00;13.70;99.90
25973;DHT22;13765;51.166;4.466;2023-05-14T02:10:25;13.70;99.90
25973;DHT22;13765;51.166;4.466;2023-05-14T02:12:51;13.80;99.90
25973;DHT22;13765;51.166;4.466;2023-05-14T02:15:19;13.80;99.90
25973;DHT22;13765;51.166;4.466;2023-05-14T02:17:44;13.80;99.90
25973;DHT22;13765;51.166;4.466;2023-05-14T02:20:11;13.70;99.90
25973;DHT22;13765;51.166;4.466;2023-05-14T02:22:37;13.70;99.90
25973;DHT22;13765;51.166;4.466;2023-05-14T02:25:03;13.60;99.90
25973;DHT22;13765;51.166;4.466;2023-05-14T02:27:28;13.40;99.90
25973;DHT22;13765;51.166;4.466;2023-05-14T02:29:54;13.40;99.90
25973;DHT22;13765;51.166;4.466;2023-05-14T02:32:25;13.40;99.90
25973;DHT22;13765;51.166;4.466;2023-05-14T02:34:51;13.50;99.90
25973;DHT22;13765;51.166;4.466;2023-05-14T02:37:19;13.60;99.90
25973;DHT22;13765;51.166;4.466;2023-05-14T02:39:44;13.60;99.90
25973;DHT22;13765;51.166;4.466;2023-05-14T02:42:13;13.60;99.90
25973;DHT22;13765;51.166;4.466;2023-05-14T02:44:41;13.50;99.90
25973;DHT22;13765;51.166;4.466;2023-05-14T02:47:06;13.40;99.90
25973;DHT22;13765;51.166;4.466;2023-05-14T02:49:34;13.40;99.90
25973;DHT22;13765;51.166;4.466;2023-05-14T02:52:02;13.40;99.90
25973;DHT22;13765;51.166;4.466;2023-05-14T02:54:28;13.30;99.90
25973;DHT22;13765;51.166;4.466;2023-05-14T02:56:53;13.30;99.90
25973;DHT22;13765;51.166;4.466;2023-05-14T02:59:19;13.10;99.90
25973;DHT22;13765;51.166;4.466;2023-05-14T03:01:47;13.10;99.90
25973;DHT22;13765;51.166;4.466;2023-05-14T03:04:13;13.10;99.90
25973;DHT22;13765;51.166;4.466;2023-05-14T03:06:41;13.20;99.90
25973;DHT22;13765;51.166;4.466;2023-05-14T03:09:06;13.30;99.90
25973;DHT22;13765;51.166;4.466;2023-05-14T03:11:34;13.40;99.90
25973;DHT22;13765;51.166;4.466;2023-05-14T03:14:00;13.30;99.90
25973;DHT22;13765;51.166;4.466;2023-05-14T03:16:28;13.30;99.90
25973;DHT22;13765;51.166;4.466;2023-05-14T03:18:54;13.20;99.90
25973;DHT22;13765;51.166;4.466;2023-05-14T03:21:19;13.20;99.90
25973;DHT22;13765;51.166;4.466;2023-05-14T03:23:45;13.10;99.90
25973;DHT22;13765;51.166;4.466;2023-05-14T03:26:11;13.20;99.90
25973;DHT22;13765;51.166;4.466;2023-05-14T03:28:36;13.10;99.90
25973;DHT22;13765;51.166;4.466;2023-05-14T03:31:02;13.10;99.90
25973;DHT22;13765;51.166;4.466;2023-05-14T03:33:28;13.00;99.90
25973;DHT22;13765;51.166;4.466;2023-05-14T03:35:54;13.10;99.90
25973;DHT22;13765;51.166;4.466;2023-05-14T03:38:22;13.00;99.90
25973;DHT22;13765;51.166;4.466;2023-05-14T03:40:49;13.00;99.90
25973;DHT22;13765;51.166;4.466;2023-05-14T03:43:15;13.00;99.90
25973;DHT22;13765;51.166;4.466;2023-05-14T03:45:43;12.90;99.90
25973;DHT22;13765;51.166;4.466;2023-05-14T03:48:08;13.00;99.90
25973;DHT22;13765;51.166;4.466;2023-05-14T03:50:34;12.90;99.90
25973;DHT22;13765;51.166;4.466;2023-05-14T03:53:00;12.90;99.90
25973;DHT22;13765;51.166;4.466;2023-05-14T03:55:25;12.90;99.90
25973;DHT22;13765;51.166;4.466;2023-05-14T03:57:51;12.90;99.90
25973;DHT22;13765;51.166;4.466;2023-05-14T04:00:19;12.80;99.90
25973;DHT22;13765;51.166;4.466;2023-05-14T04:02:50;12.80;99.90
25973;DHT22;13765;51.166;4.466;2023-05-14T04:05:15;12.90;99.90
25973;DHT22;13765;51.166;4.466;2023-05-14T04:07:43;12.80;99.90
25973;DHT22;13765;51.166;4.466;2023-05-14T04:10:11;12.70;99.90
25973;DHT22;13765;51.166;4.466;2023-05-14T04:12:39;12.80;99.90
25973;DHT22;13765;51.166;4.466;2023-05-14T04:15:05;12.80;99.90
25973;DHT22;13765;51.166;4.466;2023-05-14T04:17:31;12.80;99.90
25973;DHT22;13765;51.166;4.466;2023-05-14T04:19:57;12.80;99.90
25973;DHT22;13765;51.166;4.466;2023-05-14T04:22:23;12.80;99.90
25973;DHT22;13765;51.166;4.466;2023-05-14T04:24:49;12.80;99.90
25973;DHT22;13765;51.166;4.466;2023-05-14T04:27:19;12.80;99.90
25973;DHT22;13765;51.166;4.466;2023-05-14T04:29:50;12.80;99.90
25973;DHT22;13765;51.166;4.466;2023-05-14T04:32:16;12.90;99.90
25973;DHT22;13765;51.166;4.466;2023-05-14T04:34:42;12.90;99.90
25973;DHT22;13765;51.166;4.466;2023-05-14T04:37:08;12.90;99.90
25973;DHT22;13765;51.166;4.466;2023-05-14T04:39:34;12.90;99.90
25973;DHT22;13765;51.166;4.466;2023-05-14T04:42:02;13.00;99.90
25973;DHT22;13765;51.166;4.466;2023-05-14T04:44:28;13.00;99.90
25973;DHT22;13765;51.166;4.466;2023-05-14T04:46:56;13.10;99.90
25973;DHT22;13765;51.166;4.466;2023-05-14T04:49:24;13.00;99.90
25973;DHT22;13765;51.166;4.466;2023-05-14T04:51:50;13.00;99.90
25973;DHT22;13765;51.166;4.466;2023-05-14T04:54:15;13.00;99.90
25973;DHT22;13765;51.166;4.466;2023-05-14T04:56:43;13.10;99.90
25973;DHT22;13765;51.166;4.466;2023-05-14T04:59:09;13.20;99.90
25973;DHT22;13765;51.166;4.466;2023-05-14T05:01:34;13.20;99.90
25973;DHT22;13765;51.166;4.466;2023-05-14T05:04:00;13.10;99.90
25973;DHT22;13765;51.166;4.466;2023-05-14T05:06:26;13.20;99.90
25973;DHT22;13765;51.166;4.466;2023-05-14T05:08:54;13.30;99.90
25973;DHT22;13765;51.166;4.466;2023-05-14T05:11:20;13.40;99.90
25973;DHT22;13765;51.166;4.466;2023-05-14T05:13:49;13.40;99.90
25973;DHT22;13765;51.166;4.466;2023-05-14T05:16:14;13.70;99.90
25973;DHT22;13765;51.166;4.466;2023-05-14T05:18:40;14.10;99.90
25973;DHT22;13765;51.166;4.466;2023-05-14T05:21:06;14.70;99.90
25973;DHT22;13765;51.166;4.466;2023-05-14T05:23:34;15.40;99.90
25973;DHT22;13765;51.166;4.466;2023-05-14T05:25:59;16.10;99.90
25973;DHT22;13765;51.166;4.466;2023-05-14T05:28:25;16.80;99.90
25973;DHT22;13765;51.166;4.466;2023-05-14T05:30:51;17.50;99.90
25973;DHT22;13765;51.166;4.466;2023-05-14T05:33:16;18.00;99.90
25973;DHT22;13765;51.166;4.466;2023-05-14T05:35:42;18.50;99.90
25973;DHT22;13765;51.166;4.466;2023-05-14T05:38:08;18.90;99.90
25973;DHT22;13765;51.166;4.466;2023-05-14T05:40:34;18.90;99.90
25973;DHT22;13765;51.166;4.466;2023-05-14T05:43:00;18.60;99.90
25973;DHT22;13765;51.166;4.466;2023-05-14T05:45:26;18.50;99.90
25973;DHT22;13765;51.166;4.466;2023-05-14T05:47:54;18.10;99.90
25973;DHT22;13765;51.166;4.466;2023-05-14T05:50:22;17.80;99.90
25973;DHT22;13765;51.166;4.466;2023-05-14T05:52:48;17.90;99.90
25973;DHT22;13765;51.166;4.466;2023-05-14T05:55:14;18.10;99.90
25973;DHT22;13765;51.166;4.466;2023-05-14T05:57:40;18.50;99.90
25973;DHT22;13765;51.166;4.466;2023-05-14T06:00:06;18.90;99.90
25973;DHT22;13765;51.166;4.466;2023-05-14T06:02:45;19.10;99.90
25973;DHT22;13765;51.166;4.466;2023-05-14T06:05:11;18.80;99.90
25973;DHT22;13765;51.166;4.466;2023-05-14T06:07:37;18.30;99.90
25973;DHT22;13765;51.166;4.466;2023-05-14T06:10:08;18.30;99.90
25973;DHT22;13765;51.166;4.466;2023-05-14T06:12:34;18.20;99.90
25973;DHT22;13765;51.166;4.466;2023-05-14T06:15:02;18.40;99.90
25973;DHT22;13765;51.166;4.466;2023-05-14T06:17:33;18.20;99.90
25973;DHT22;13765;51.166;4.466;2023-05-14T06:19:58;18.00;99.90
25973;DHT22;13765;51.166;4.466;2023-05-14T06:22:24;17.80;99.90
25973;DHT22;13765;51.166;4.466;2023-05-14T06:24:52;18.00;99.90
25973;DHT22;13765;51.166;4.466;2023-05-14T06:27:18;18.10;99.90
25973;DHT22;13765;51.166;4.466;2023-05-14T06:29:46;18.00;99.90
25973;DHT22;13765;51.166;4.466;2023-05-14T06:32:11;17.70;99.90
25973;DHT22;13765;51.166;4.466;2023-05-14T06:34:40;17.40;99.90
25973;DHT22;13765;51.166;4.466;2023-05-14T06:37:09;17.50;99.90
25973;DHT22;13765;51.166;4.466;2023-05-14T06:39:36;17.50;99.90
25973;DHT22;13765;51.166;4.466;2023-05-14T06:42:05;17.60;99.90
25973;DHT22;13765;51.166;4.466;2023-05-14T06:44:31;17.30;99.90
25973;DHT22;13765;51.166;4.466;2023-05-14T06:46:59;17.00;99.90
25973;DHT22;13765;51.166;4.466;2023-05-14T06:49:25;16.80;99.90
25973;DHT22;13765;51.166;4.466;2023-05-14T06:51:50;16.80;99.90
25973;DHT22;13765;51.166;4.466;2023-05-14T06:54:21;16.70;99.90
25973;DHT22;13765;51.166;4.466;2023-05-14T06:56:46;16.80;99.90
25973;DHT22;13765;51.166;4.466;2023-05-14T06:59:12;16.70;99.90
25973;DHT22;13765;51.166;4.466;2023-05-14T07:01:40;16.50;99.90
25973;DHT22;13765;51.166;4.466;2023-05-14T07:04:06;16.40;99.90
25973;DHT22;13765;51.166;4.466;2023-05-14T07:06:32;16.40;99.90
25973;DHT22;13765;51.166;4.466;2023-05-14T07:08:58;16.50;99.90
25973;DHT22;13765;51.166;4.466;2023-05-14T07:11:23;16.50;99.90
25973;DHT22;13765;51.166;4.466;2023-05-14T07:13:49;16.40;99.90
25973;DHT22;13765;51.166;4.466;2023-05-14T07:16:17;16.30;99.90
25973;DHT22;13765;51.166;4.466;2023-05-14T07:18:43;16.20;99.90
25973;DHT22;13765;51.166;4.466;2023-05-14T07:21:10;16.50;99.90
25973;DHT22;13765;51.166;4.466;2023-05-14T07:23:35;16.80;99.90
25973;DHT22;13765;51.166;4.466;2023-05-14T07:26:06;17.20;99.90
25973;DHT22;13765;51.166;4.466;2023-05-14T07:28:32;17.80;99.90
25973;DHT22;13765;51.166;4.466;2023-05-14T07:30:57;18.10;99.90
25973;DHT22;13765;51.166;4.466;2023-05-14T07:33:23;18.50;99.90
25973;DHT22;13765;51.166;4.466;2023-05-14T07:35:49;18.10;99.90
25973;DHT22;13765;51.166;4.466;2023-05-14T07:38:15;18.10;99.90
25973;DHT22;13765;51.166;4.466;2023-05-14T07:40:41;18.10;99.90
25973;DHT22;13765;51.166;4.466;2023-05-14T07:43:10;18.30;99.90
25973;DHT22;13765;51.166;4.466;2023-05-14T07:45:38;18.30;99.90
25973;DHT22;13765;51.166;4.466;2023-05-14T07:48:04;18.40;99.90
25973;DHT22;13765;51.166;4.466;2023-05-14T07:50:32;18.60;99.90
25973;DHT22;13765;51.166;4.466;2023-05-14T07:52:58;18.70;99.90
25973;DHT22;13765;51.166;4.466;2023-05-14T07:55:23;18.50;99.90
25973;DHT22;13765;51.166;4.466;2023-05-14T07:57:49;18.50;99.90
25973;DHT22;13765;51.166;4.466;2023-05-14T08:00:15;18.80;99.90
25973;DHT22;13765;51.166;4.466;2023-05-14T08:02:41;18.50;99.90
25973;DHT22;13765;51.166;4.466;2023-05-14T08:05:08;18.50;99.90
25973;DHT22;13765;51.166;4.466;2023-05-14T08:07:36;18.70;99.90
25973;DHT22;13765;51.166;4.466;2023-05-14T08:10:02;18.50;99.90
25973;DHT22;13765;51.166;4.466;2023-05-14T08:12:27;18.60;99.90
25973;DHT22;13765;51.166;4.466;2023-05-14T08:14:54;18.30;99.90
25973;DHT22;13765;51.166;4.466;2023-05-14T08:17:22;17.70;99.90
25973;DHT22;13765;51.166;4.466;2023-05-14T08:19:51;18.00;99.90
25973;DHT22;13765;51.166;4.466;2023-05-14T08:22:16;18.20;99.90
25973;DHT22;13765;51.166;4.466;2023-05-14T08:24:42;18.40;99.90
25973;DHT22;13765;51.166;4.466;2023-05-14T08:27:08;18.40;99.90
25973;DHT22;13765;51.166;4.466;2023-05-14T08:29:34;18.40;99.90
25973;DHT22;13765;51.166;4.466;2023-05-14T08:32:02;17.70;99.90
25973;DHT22;13765;51.166;4.466;2023-05-14T08:34:30;17.70;99.90
25973;DHT22;13765;51.166;4.466;2023-05-14T08:36:56;18.40;99.90
25973;DHT22;13765;51.166;4.466;2023-05-14T08:39:21;18.80;99.90
25973;DHT22;13765;51.166;4.466;2023-05-14T08:41:47;19.20;99.90
25973;DHT22;13765;51.166;4.466;2023-05-14T08:44:18;19.80;99.90
25973;DHT22;13765;51.166;4.466;2023-05-14T08:46:45;19.60;99.90
25973;DHT22;13765;51.166;4.466;2023-05-14T08:51:49;19.60;99.90
25973;DHT22;13765;51.166;4.466;2023-05-14T08:54:16;19.80;99.90
25973;DHT22;13765;51.166;4.466;2023-05-14T08:56:43;20.00;99.90
25973;DHT22;13765;51.166;4.466;2023-05-14T08:59:13;20.20;99.90
25973;DHT22;13765;51.166;4.466;2023-05-14T09:01:43;20.20;99.90
25973;DHT22;13765;51.166;4.466;2023-05-14T09:04:15;19.90;99.90
25973;DHT22;13765;51.166;4.466;2023-05-14T09:06:42;20.20;99.90
25973;DHT22;13765;51.166;4.466;2023-05-14T09:09:08;20.30;99.90
25973;DHT22;13765;51.166;4.466;2023-05-14T09:11:41;20.20;99.90
25973;DHT22;13765;51.166;4.466;2023-05-14T09:14:07;20.30;99.90
25973;DHT22;13765;51.166;4.466;2023-05-14T09:16:33;20.60;99.90
25973;DHT22;13765;51.166;4.466;2023-05-14T09:19:01;20.20;99.90
25973;DHT22;13765;51.166;4.466;2023-05-14T09:21:27;20.30;99.90
25973;DHT22;13765;51.166;4.466;2023-05-14T09:23:56;20.80;99.90
25973;DHT22;13765;51.166;4.466;2023-05-14T09:26:25;21.30;99.90
25973;DHT22;13765;51.166;4.466;2023-05-14T09:28:56;21.50;99.90
25973;DHT22;13765;51.166;4.466;2023-05-14T09:31:29;21.30;99.90
25973;DHT22;13765;51.166;4.466;2023-05-14T09:33:56;21.50;99.90
25973;DHT22;13765;51.166;4.466;2023-05-14T09:36:22;21.70;99.90
25973;DHT22;13765;51.166;4.466;2023-05-14T09:38:49;21.20;99.90
25973;DHT22;13765;51.166;4.466;2023-05-14T09:41:19;21.30;99.90
25973;DHT22;13765;51.166;4.466;2023-05-14T09:43:48;21.60;99.90
25973;DHT22;13765;51.166;4.466;2023-05-14T09:46:14;21.50;99.90
25973;DHT22;13765;51.166;4.466;2023-05-14T09:48:42;21.60;99.90
25973;DHT22;13765;51.166;4.466;2023-05-14T09:51:12;21.70;99.90
25973;DHT22;13765;51.166;4.466;2023-05-14T09:53:38;22.00;99.90
25973;DHT22;13765;51.166;4.466;2023-05-14T09:56:05;22.60;99.90
25973;DHT22;13765;51.166;4.466;2023-05-14T09:58:31;22.70;99.90
25973;DHT22;13765;51.166;4.466;2023-05-14T10:01:00;22.80;99.90
25973;DHT22;13765;51.166;4.466;2023-05-14T10:03:28;22.60;99.90
25973;DHT22;13765;51.166;4.466;2023-05-14T10:05:59;22.50;99.90
25973;DHT22;13765;51.166;4.466;2023-05-14T10:08:35;22.30;99.90
25973;DHT22;13765;51.166;4.466;2023-05-14T10:11:09;22.50;99.90
25973;DHT22;13765;51.166;4.466;2023-05-14T10:13:41;22.10;99.90
25973;DHT22;13765;51.166;4.466;2023-05-14T10:16:19;22.10;99.90
25973;DHT22;13765;51.166;4.466;2023-05-14T10:18:51;22.20;99.90
25973;DHT22;13765;51.166;4.466;2023-05-14T10:21:23;22.20;99.90
25973;DHT22;13765;51.166;4.466;2023-05-14T10:23:49;22.60;99.90
25973;DHT22;13765;51.166;4.466;2023-05-14T10:26:15;22.70;99.90
25973;DHT22;13765;51.166;4.466;2023-05-14T10:28:44;22.50;99.90
25973;DHT22;13765;51.166;4.466;2023-05-14T10:31:10;22.20;99.90
25973;DHT22;13765;51.166;4.466;2023-05-14T10:33:47;22.60;99.90
25973;DHT22;13765;51.166;4.466;2023-05-14T10:36:14;23.10;99.90
25973;DHT22;13765;51.166;4.466;2023-05-14T10:38:40;23.10;99.90
25973;DHT22;13765;51.166;4.466;2023-05-14T10:41:15;23.50;99.90
25973;DHT22;13765;51.166;4.466;2023-05-14T10:43:46;23.80;99.90
25973;DHT22;13765;51.166;4.466;2023-05-14T10:46:13;24.00;99.90
25973;DHT22;13765;51.166;4.466;2023-05-14T10:48:41;23.20;99.90
25973;DHT22;13765;51.166;4.466;2023-05-14T10:51:10;23.20;99.90
25973;DHT22;13765;51.166;4.466;2023-05-14T10:53:41;22.90;99.90
25973;DHT22;13765;51.166;4.466;2023-05-14T10:56:13;22.70;99.90
25973;DHT22;13765;51.166;4.466;2023-05-14T10:58:42;22.20;99.90
25973;DHT22;13765;51.166;4.466;2023-05-14T11:01:09;22.30;99.90
25973;DHT22;13765;51.166;4.466;2023-05-14T11:03:41;22.60;99.90
25973;DHT22;13765;51.166;4.466;2023-05-14T11:06:08;23.20;99.90
25973;DHT22;13765;51.166;4.466;2023-05-14T11:08:34;23.00;99.90
25973;DHT22;13765;51.166;4.466;2023-05-14T11:10:59;22.80;99.90
25973;DHT22;13765;51.166;4.466;2023-05-14T11:13:25;22.50;99.90
25973;DHT22;13765;51.166;4.466;2023-05-14T11:15:52;22.60;99.90
25973;DHT22;13765;51.166;4.466;2023-05-14T11:18:28;22.60;99.90
25973;DHT22;13765;51.166;4.466;2023-05-14T11:20:58;22.50;99.90
25973;DHT22;13765;51.166;4.466;2023-05-14T11:23:26;22.70;99.90
25973;DHT22;13765;51.166;4.466;2023-05-14T11:25:53;23.00;99.90
25973;DHT22;13765;51.166;4.466;2023-05-14T11:28:20;23.50;99.90
25973;DHT22;13765;51.166;4.466;2023-05-14T11:30:47;23.50;99.90
25973;DHT22;13765;51.166;4.466;2023-05-14T11:33:13;23.80;99.90
25973;DHT22;13765;51.166;4.466;2023-05-14T11:35:40;23.80;99.90
25973;DHT22;13765;51.166;4.466;2023-05-14T11:38:15;23.80;99.90
25973;DHT22;13765;51.166;4.466;2023-05-14T11:40:41;23.40;99.90
25973;DHT22;13765;51.166;4.466;2023-05-14T11:43:07;23.60;99.90
25973;DHT22;13765;51.166;4.466;2023-05-14T11:45:33;23.90;99.90
25973;DHT22;13765;51.166;4.466;2023-05-14T11:48:00;24.20;99.90
25973;DHT22;13765;51.166;4.466;2023-05-14T11:50:29;24.10;99.90
25973;DHT22;13765;51.166;4.466;2023-05-14T11:52:57;24.10;99.90
25973;DHT22;13765;51.166;4.466;2023-05-14T11:55:23;24.10;99.90
25973;DHT22;13765;51.166;4.466;2023-05-14T11:57:50;24.20;99.90
25973;DHT22;13765;51.166;4.466;2023-05-14T12:00:16;24.20;99.90
25973;DHT22;13765;51.166;4.466;2023-05-14T12:02:47;24.20;99.90
25973;DHT22;13765;51.166;4.466;2023-05-14T12:05:15;24.20;99.90
25973;DHT22;13765;51.166;4.466;2023-05-14T12:07:44;24.80;99.90
25973;DHT22;13765;51.166;4.466;2023-05-14T12:10:13;25.10;99.90
25973;DHT22;13765;51.166;4.466;2023-05-14T12:12:44;25.30;99.90
25973;DHT22;13765;51.166;4.466;2023-05-14T12:15:12;24.90;99.90
25973;DHT22;13765;51.166;4.466;2023-05-14T12:17:38;25.10;99.90
25973;DHT22;13765;51.166;4.466;2023-05-14T12:20:07;25.10;99.90
25973;DHT22;13765;51.166;4.466;2023-05-14T12:22:33;25.20;99.90
25973;DHT22;13765;51.166;4.466;2023-05-14T12:24:59;25.00;99.90
25973;DHT22;13765;51.166;4.466;2023-05-14T12:27:28;25.20;99.90
25973;DHT22;13765;51.166;4.466;2023-05-14T12:29:58;25.20;99.90
25973;DHT22;13765;51.166;4.466;2023-05-14T12:32:25;25.30;99.90
25973;DHT22;13765;51.166;4.466;2023-05-14T12:34:51;25.20;99.90
25973;DHT22;13765;51.166;4.466;2023-05-14T12:37:16;25.80;99.90
25973;DHT22;13765;51.166;4.466;2023-05-14T12:39:43;26.00;99.90
25973;DHT22;13765;51.166;4.466;2023-05-14T12:42:08;25.90;99.90
25973;DHT22;13765;51.166;4.466;2023-05-14T12:44:34;26.00;99.90
25973;DHT22;13765;51.166;4.466;2023-05-14T12:47:02;26.40;99.90
25973;DHT22;13765;51.166;4.466;2023-05-14T12:49:30;26.70;99.90
25973;DHT22;13765;51.166;4.466;2023-05-14T12:51:56;26.40;99.90
25973;DHT22;13765;51.166;4.466;2023-05-14T12:54:22;26.10;99.90
25973;DHT22;13765;51.166;4.466;2023-05-14T12:56:48;26.00;99.90
25973;DHT22;13765;51.166;4.466;2023-05-14T12:59:13;26.20;99.90
25973;DHT22;13765;51.166;4.466;2023-05-14T13:01:40;26.50;99.90
25973;DHT22;13765;51.166;4.466;2023-05-14T13:04:06;26.50;99.90
25973;DHT22;13765;51.166;4.466;2023-05-14T13:06:33;26.10;99.90
25973;DHT22;13765;51.166;4.466;2023-05-14T13:08:59;26.40;99.90
25973;DHT22;13765;51.166;4.466;2023-05-14T13:11:26;26.30;99.90
25973;DHT22;13765;51.166;4.466;2023-05-14T13:13:54;26.40;99.90
25973;DHT22;13765;51.166;4.466;2023-05-14T13:16:20;25.90;99.90
25973;DHT22;13765;51.166;4.466;2023-05-14T13:18:46;25.80;99.90
25973;DHT22;13765;51.166;4.466;2023-05-14T13:21:14;25.70;99.90
25973;DHT22;13765;51.166;4.466;2023-05-14T13:23:39;25.80;99.90
25973;DHT22;13765;51.166;4.466;2023-05-14T13:26:05;25.90;99.90
25973;DHT22;13765;51.166;4.466;2023-05-14T13:28:31;25.80;99.90
25973;DHT22;13765;51.166;4.466;2023-05-14T13:31:10;25.50;99.90
25973;DHT22;13765;51.166;4.466;2023-05-14T13:33:39;25.50;99.90
25973;DHT22;13765;51.166;4.466;2023-05-14T13:36:05;25.90;99.90
25973;DHT22;13765;51.166;4.466;2023-05-14T13:38:31;25.30;99.90
25973;DHT22;13765;51.166;4.466;2023-05-14T13:40:57;25.10;99.90
25973;DHT22;13765;51.166;4.466;2023-05-14T13:43:27;25.00;99.90
25973;DHT22;13765;51.166;4.466;2023-05-14T13:45:53;24.70;99.90
25973;DHT22;13765;51.166;4.466;2023-05-14T13:48:19;24.90;99.90
25973;DHT22;13765;51.166;4.466;2023-05-14T13:50:45;25.00;99.90
25973;DHT22;13765;51.166;4.466;2023-05-14T13:53:10;24.80;99.90
25973;DHT22;13765;51.166;4.466;2023-05-14T13:55:36;24.50;99.90
25973;DHT22;13765;51.166;4.466;2023-05-14T13:58:02;24.50;99.90
25973;DHT22;13765;51.166;4.466;2023-05-14T14:00:27;24.50;99.90
25973;DHT22;13765;51.166;4.466;2023-05-14T14:02:55;24.20;99.90
25973;DHT22;13765;51.166;4.466;2023-05-14T14:05:21;24.10;99.90
25973;DHT22;13765;51.166;4.466;2023-05-14T14:07:48;24.20;99.90
25973;DHT22;13765;51.166;4.466;2023-05-14T14:10:14;24.20;99.90
25973;DHT22;13765;51.166;4.466;2023-05-14T14:12:40;24.10;99.90
25973;DHT22;13765;51.166;4.466;2023-05-14T14:15:06;24.10;99.90
25973;DHT22;13765;51.166;4.466;2023-05-14T14:17:34;24.20;99.90
25973;DHT22;13765;51.166;4.466;2023-05-14T14:20:01;24.10;99.90
25973;DHT22;13765;51.166;4.466;2023-05-14T14:22:32;24.00;99.90
25973;DHT22;13765;51.166;4.466;2023-05-14T14:25:00;24.00;99.90
25973;DHT22;13765;51.166;4.466;2023-05-14T14:27:28;24.10;99.90
25973;DHT22;13765;51.166;4.466;2023-05-14T14:29:58;24.00;99.90
25973;DHT22;13765;51.166;4.466;2023-05-14T14:32:26;23.60;99.90
25973;DHT22;13765;51.166;4.466;2023-05-14T14:34:52;23.70;99.90
25973;DHT22;13765;51.166;4.466;2023-05-14T14:37:20;24.00;99.90
25973;DHT22;13765;51.166;4.466;2023-05-14T14:39:46;24.00;99.90
25973;DHT22;13765;51.166;4.466;2023-05-14T14:42:11;23.90;99.90
25973;DHT22;13765;51.166;4.466;2023-05-14T14:44:39;23.60;99.90
25973;DHT22;13765;51.166;4.466;2023-05-14T14:47:06;23.50;99.90
25973;DHT22;13765;51.166;4.466;2023-05-14T14:51:59;23.10;99.90
25973;DHT22;13765;51.166;4.466;2023-05-14T14:54:27;23.00;99.90
25973;DHT22;13765;51.166;4.466;2023-05-14T14:56:52;23.00;99.90
25973;DHT22;13765;51.166;4.466;2023-05-14T14:59:18;23.10;99.90
25973;DHT22;13765;51.166;4.466;2023-05-14T15:01:47;22.70;99.90
25973;DHT22;13765;51.166;4.466;2023-05-14T15:04:14;22.50;99.90
25973;DHT22;13765;51.166;4.466;2023-05-14T15:06:40;22.70;99.90
25973;DHT22;13765;51.166;4.466;2023-05-14T15:09:06;23.00;99.90
25973;DHT22;13765;51.166;4.466;2023-05-14T15:11:32;22.90;99.90
25973;DHT22;13765;51.166;4.466;2023-05-14T15:13:57;22.70;99.90
25973;DHT22;13765;51.166;4.466;2023-05-14T15:16:23;22.50;99.90
25973;DHT22;13765;51.166;4.466;2023-05-14T15:18:49;22.20;99.90
25973;DHT22;13765;51.166;4.466;2023-05-14T15:21:14;21.70;99.90
25973;DHT22;13765;51.166;4.466;2023-05-14T15:23:40;21.60;99.90
25973;DHT22;13765;51.166;4.466;2023-05-14T15:26:06;21.70;99.90
25973;DHT22;13765;51.166;4.466;2023-05-14T15:28:31;21.70;99.90
25973;DHT22;13765;51.166;4.466;2023-05-14T15:30:58;21.60;99.90
25973;DHT22;13765;51.166;4.466;2023-05-14T15:33:23;21.20;99.90
25973;DHT22;13765;51.166;4.466;2023-05-14T15:35:51;21.00;99.90
25973;DHT22;13765;51.166;4.466;2023-05-14T15:38:17;21.00;99.90